sensor_id;sensor_type;location;lat;lon;timestamp;pressure;altitude;pressure_sealevel;temperature;humidity
60244;BME280;46106;51.468;5.814;2023-04-26T00:01:10;101607.22;;;3.47;100.00
60244;BME280;46106;51.468;5.814;2023-04-26T00:03:36;101606.28;;;3.48;100.00
60244;BME280;46106;51.468;5.814;2023-04-26T00:06:03;101603.72;;;3.69;100.00
60244;BME280;46106;51.468;5.814;2023-04-26T00:08:39;101603.56;;;3.72;100.00
60244;BME280;46106;51.468;5.814;2023-04-26T00:11:06;101602.22;;;3.60;100.00
60244;BME280;46106;51.468;5.814;2023-04-26T00:13:32;101603.78;;;3.67;100.00
60244;BME280;46106;51.468;5.814;2023-04-26T00:15:57;101603.72;;;3.69;100.00
60244;BME280;46106;51.468;5.814;2023-04-26T00:18:23;101608.41;;;3.64;100.00
60244;BME280;46106;51.468;5.814;2023-04-26T00:20:48;101597.78;;;3.59;100.00
60244;BME280;46106;51.468;5.814;2023-04-26T00:23:14;101597.13;;;3.53;100.00
60244;BME280;46106;51.468;5.814;2023-04-26T00:25:39;101596.03;;;3.33;100.00
60244;BME280;46106;51.468;5.814;2023-04-26T00:28:04;101597.13;;;3.53;100.00
60244;BME280;46106;51.468;5.814;2023-04-26T00:30:30;101599.50;;;3.37;100.00
60244;BME280;46106;51.468;5.814;2023-04-26T00:32:56;101595.56;;;3.45;100.00
60244;BME280;46106;51.468;5.814;2023-04-26T00:35:22;101593.97;;;3.40;100.00
60244;BME280;46106;51.468;5.814;2023-04-26T00:37:47;101585.81;;;3.41;100.00
60244;BME280;46106;51.468;5.814;2023-04-26T00:40:12;101602.22;;;3.37;100.00
60244;BME280;46106;51.468;5.814;2023-04-26T00:42:40;101594.16;;;3.35;100.00
60244;BME280;46106;51.468;5.814;2023-04-26T00:45:06;101608.72;;;3.31;100.00
60244;BME280;46106;51.468;5.814;2023-04-26T00:47:34;101603.63;;;3.23;100.00
60244;BME280;46106;51.468;5.814;2023-04-26T00:50:00;101599.78;;;3.04;100.00
60244;BME280;46106;51.468;5.814;2023-04-26T00:52:26;101597.59;;;3.15;100.00
60244;BME280;46106;51.468;5.814;2023-04-26T00:54:55;101595.81;;;3.14;100.00
60244;BME280;46106;51.468;5.814;2023-04-26T00:57:22;101592.34;;;3.10;100.00
60244;BME280;46106;51.468;5.814;2023-04-26T00:59:47;101594.22;;;3.08;100.00
60244;BME280;46106;51.468;5.814;2023-04-26T01:02:13;101596.75;;;3.13;100.00
60244;BME280;46106;51.468;5.814;2023-04-26T01:04:39;101601.88;;;3.21;100.00
60244;BME280;46106;51.468;5.814;2023-04-26T01:07:06;101601.78;;;3.24;100.00
60244;BME280;46106;51.468;5.814;2023-04-26T01:09:32;101590.09;;;3.23;100.00
60244;BME280;46106;51.468;5.814;2023-04-26T01:11:59;101603.72;;;3.20;100.00
60244;BME280;46106;51.468;5.814;2023-04-26T01:14:25;101594.38;;;3.04;100.00
60244;BME280;46106;51.468;5.814;2023-04-26T01:16:51;101599.63;;;3.08;100.00
60244;BME280;46106;51.468;5.814;2023-04-26T01:19:17;101598.63;;;2.86;100.00
60244;BME280;46106;51.468;5.814;2023-04-26T01:21:43;101603.25;;;2.82;100.00
60244;BME280;46106;51.468;5.814;2023-04-26T01:24:11;101605.97;;;2.82;100.00
60244;BME280;46106;51.468;5.814;2023-04-26T01:26:37;101602.34;;;2.82;100.00
60244;BME280;46106;51.468;5.814;2023-04-26T01:29:16;101606.91;;;2.81;100.00
60244;BME280;46106;51.468;5.814;2023-04-26T01:31:42;101597.66;;;2.87;100.00
60244;BME280;46106;51.468;5.814;2023-04-26T01:34:08;101604.16;;;3.08;100.00
60244;BME280;46106;51.468;5.814;2023-04-26T01:36:33;101612.00;;;3.16;100.00
60244;BME280;46106;51.468;5.814;2023-04-26T01:38:59;101605.81;;;3.12;100.00
60244;BME280;46106;51.468;5.814;2023-04-26T01:41:24;101616.25;;;2.98;100.00
60244;BME280;46106;51.468;5.814;2023-04-26T01:43:50;101607.25;;;2.97;100.00
60244;BME280;46106;51.468;5.814;2023-04-26T01:46:15;101610.66;;;3.02;100.00
60244;BME280;46106;51.468;5.814;2023-04-26T01:48:40;101610.97;;;2.93;100.00
60244;BME280;46106;51.468;5.814;2023-04-26T01:51:06;101608.63;;;2.84;100.00
60244;BME280;46106;51.468;5.814;2023-04-26T01:53:32;101597.41;;;2.94;100.00
60244;BME280;46106;51.468;5.814;2023-04-26T01:56:01;101608.69;;;3.07;100.00
60244;BME280;46106;51.468;5.814;2023-04-26T01:58:27;101609.16;;;2.93;100.00
60244;BME280;46106;51.468;5.814;2023-04-26T02:00:53;101604.44;;;3.00;100.00
60244;BME280;46106;51.468;5.814;2023-04-26T02:03:18;101596.94;;;3.08;100.00
60244;BME280;46106;51.468;5.814;2023-04-26T02:05:43;101598.13;;;3.00;100.00
60244;BME280;46106;51.468;5.814;2023-04-26T02:08:09;101600.94;;;2.97;100.00
60244;BME280;46106;51.468;5.814;2023-04-26T02:10:34;101609.97;;;2.97;100.00
60244;BME280;46106;51.468;5.814;2023-04-26T02:13:03;101600.78;;;3.01;100.00
60244;BME280;46106;51.468;5.814;2023-04-26T02:15:28;101599.03;;;2.73;100.00
60244;BME280;46106;51.468;5.814;2023-04-26T02:17:55;101601.41;;;2.57;100.00
60244;BME280;46106;51.468;5.814;2023-04-26T02:20:20;101608.66;;;2.55;100.00
60244;BME280;46106;51.468;5.814;2023-04-26T02:22:46;101613.56;;;2.71;100.00
60244;BME280;46106;51.468;5.814;2023-04-26T02:25:11;101611.59;;;2.76;100.00
60244;BME280;46106;51.468;5.814;2023-04-26T02:27:37;101606.94;;;2.80;100.00
60244;BME280;46106;51.468;5.814;2023-04-26T02:30:03;101606.53;;;2.92;100.00
60244;BME280;46106;51.468;5.814;2023-04-26T02:32:29;101601.44;;;2.83;100.00
60244;BME280;46106;51.468;5.814;2023-04-26T02:34:54;101598.00;;;2.78;100.00
60244;BME280;46106;51.468;5.814;2023-04-26T02:37:20;101606.22;;;2.74;100.00
60244;BME280;46106;51.468;5.814;2023-04-26T02:39:49;101589.78;;;2.81;100.00
60244;BME280;46106;51.468;5.814;2023-04-26T02:42:15;101596.44;;;2.70;100.00
60244;BME280;46106;51.468;5.814;2023-04-26T02:44:41;101577.34;;;2.75;100.00
60244;BME280;46106;51.468;5.814;2023-04-26T02:47:10;101581.13;;;2.71;100.00
60244;BME280;46106;51.468;5.814;2023-04-26T02:49:35;101596.41;;;2.45;100.00
60244;BME280;46106;51.468;5.814;2023-04-26T02:52:01;101603.88;;;2.37;100.00
60244;BME280;46106;51.468;5.814;2023-04-26T02:54:26;101596.25;;;2.50;100.00
60244;BME280;46106;51.468;5.814;2023-04-26T02:56:52;101591.16;;;2.67;100.00
60244;BME280;46106;51.468;5.814;2023-04-26T02:59:17;101591.16;;;2.67;100.00
60244;BME280;46106;51.468;5.814;2023-04-26T03:01:43;101592.25;;;2.62;100.00
60244;BME280;46106;51.468;5.814;2023-04-26T03:04:08;101588.38;;;2.69;100.00
60244;BME280;46106;51.468;5.814;2023-04-26T03:06:34;101584.38;;;2.54;100.00
60244;BME280;46106;51.468;5.814;2023-04-26T03:08:59;101581.31;;;2.65;100.00
60244;BME280;46106;51.468;5.814;2023-04-26T03:11:29;101586.56;;;2.69;100.00
60244;BME280;46106;51.468;5.814;2023-04-26T03:13:55;101574.47;;;2.54;100.00
60244;BME280;46106;51.468;5.814;2023-04-26T03:16:21;101589.72;;;2.55;100.00
60244;BME280;46106;51.468;5.814;2023-04-26T03:18:47;101579.06;;;2.51;100.00
60244;BME280;46106;51.468;5.814;2023-04-26T03:21:12;101579.59;;;2.62;100.00
60244;BME280;46106;51.468;5.814;2023-04-26T03:23:38;101575.34;;;2.55;100.00
60244;BME280;46106;51.468;5.814;2023-04-26T03:26:04;101583.34;;;2.58;100.00
60244;BME280;46106;51.468;5.814;2023-04-26T03:28:29;101581.47;;;2.33;100.00
60244;BME280;46106;51.468;5.814;2023-04-26T03:30:55;101581.16;;;2.43;100.00
60244;BME280;46106;51.468;5.814;2023-04-26T03:33:20;101576.22;;;2.29;100.00
60244;BME280;46106;51.468;5.814;2023-04-26T03:35:46;101566.22;;;2.31;100.00
60244;BME280;46106;51.468;5.814;2023-04-26T03:38:11;101570.81;;;2.29;100.00
60244;BME280;46106;51.468;5.814;2023-04-26T03:40:37;101566.66;;;2.18;100.00
60244;BME280;46106;51.468;5.814;2023-04-26T03:43:02;101570.75;;;2.30;100.00
60244;BME280;46106;51.468;5.814;2023-04-26T03:45:28;101578.03;;;2.28;100.00
60244;BME280;46106;51.468;5.814;2023-04-26T03:47:53;101570.97;;;2.24;100.00
60244;BME280;46106;51.468;5.814;2023-04-26T03:50:19;101568.50;;;2.16;100.00
60244;BME280;46106;51.468;5.814;2023-04-26T03:52:45;101576.59;;;2.16;100.00
60244;BME280;46106;51.468;5.814;2023-04-26T03:55:10;101566.16;;;2.06;100.00
60244;BME280;46106;51.468;5.814;2023-04-26T03:57:36;101571.00;;;2.23;100.00
60244;BME280;46106;51.468;5.814;2023-04-26T04:00:03;101569.31;;;2.20;100.00
60244;BME280;46106;51.468;5.814;2023-04-26T04:02:34;101567.38;;;2.24;100.00
60244;BME280;46106;51.468;5.814;2023-04-26T04:05:03;101572.66;;;2.28;100.00
60244;BME280;46106;51.468;5.814;2023-04-26T04:07:28;101577.25;;;2.25;100.00
60244;BME280;46106;51.468;5.814;2023-04-26T04:09:54;101579.03;;;2.26;100.00
60244;BME280;46106;51.468;5.814;2023-04-26T04:12:20;101573.28;;;2.36;100.00
60244;BME280;46106;51.468;5.814;2023-04-26T04:14:47;101575.13;;;2.34;100.00
60244;BME280;46106;51.468;5.814;2023-04-26T04:17:12;101569.09;;;2.26;100.00
60244;BME280;46106;51.468;5.814;2023-04-26T04:19:39;101562.31;;;2.13;100.00
60244;BME280;46106;51.468;5.814;2023-04-26T04:22:04;101569.78;;;2.33;100.00
60244;BME280;46106;51.468;5.814;2023-04-26T04:24:30;101574.72;;;2.20;100.00
60244;BME280;46106;51.468;5.814;2023-04-26T04:26:56;101577.03;;;2.31;100.00
60244;BME280;46106;51.468;5.814;2023-04-26T04:29:22;101573.41;;;2.05;100.00
60244;BME280;46106;51.468;5.814;2023-04-26T04:31:47;101581.81;;;2.23;100.00
60244;BME280;46106;51.468;5.814;2023-04-26T04:34:12;101578.91;;;2.29;100.00
60244;BME280;46106;51.468;5.814;2023-04-26T04:36:38;101579.47;;;2.40;100.00
60244;BME280;46106;51.468;5.814;2023-04-26T04:39:05;101590.34;;;2.37;100.00
60244;BME280;46106;51.468;5.814;2023-04-26T04:41:39;101589.50;;;2.36;100.00
60244;BME280;46106;51.468;5.814;2023-04-26T04:44:11;101587.22;;;2.23;100.00
60244;BME280;46106;51.468;5.814;2023-04-26T04:46:37;101592.34;;;2.32;100.00
60244;BME280;46106;51.468;5.814;2023-04-26T04:49:02;101586.41;;;2.47;100.00
60244;BME280;46106;51.468;5.814;2023-04-26T04:51:28;101587.19;;;2.51;100.00
60244;BME280;46106;51.468;5.814;2023-04-26T04:53:53;101596.97;;;2.55;100.00
60244;BME280;46106;51.468;5.814;2023-04-26T04:56:19;101599.47;;;2.61;100.00
60244;BME280;46106;51.468;5.814;2023-04-26T04:58:45;101595.28;;;2.51;100.00
60244;BME280;46106;51.468;5.814;2023-04-26T05:01:11;101596.56;;;2.67;100.00
60244;BME280;46106;51.468;5.814;2023-04-26T05:03:37;101599.03;;;2.73;100.00
60244;BME280;46106;51.468;5.814;2023-04-26T05:06:03;101603.94;;;2.62;100.00
60244;BME280;46106;51.468;5.814;2023-04-26T05:08:29;101607.47;;;2.64;100.00
60244;BME280;46106;51.468;5.814;2023-04-26T05:10:55;101604.41;;;2.75;100.00
60244;BME280;46106;51.468;5.814;2023-04-26T05:13:21;101608.44;;;2.88;100.00
60244;BME280;46106;51.468;5.814;2023-04-26T05:15:46;101609.66;;;3.05;100.00
60244;BME280;46106;51.468;5.814;2023-04-26T05:18:11;101616.84;;;3.06;100.00
60244;BME280;46106;51.468;5.814;2023-04-26T05:20:37;101615.06;;;3.05;100.00
60244;BME280;46106;51.468;5.814;2023-04-26T05:23:03;101615.13;;;3.03;100.00
60244;BME280;46106;51.468;5.814;2023-04-26T05:25:28;101610.44;;;3.34;100.00
60244;BME280;46106;51.468;5.814;2023-04-26T05:27:54;101624.00;;;3.57;100.00
60244;BME280;46106;51.468;5.814;2023-04-26T05:30:19;101626.16;;;3.73;100.00
60244;BME280;46106;51.468;5.814;2023-04-26T05:32:45;101625.13;;;3.99;100.00
60244;BME280;46106;51.468;5.814;2023-04-26T05:35:10;101629.88;;;4.16;100.00
60244;BME280;46106;51.468;5.814;2023-04-26T05:37:36;101630.53;;;4.45;100.00
60244;BME280;46106;51.468;5.814;2023-04-26T05:40:03;101626.81;;;4.47;100.00
60244;BME280;46106;51.468;5.814;2023-04-26T05:42:29;101625.25;;;4.41;100.00
60244;BME280;46106;51.468;5.814;2023-04-26T05:44:58;101625.28;;;4.62;100.00
60244;BME280;46106;51.468;5.814;2023-04-26T05:47:23;101630.63;;;4.64;100.00
60244;BME280;46106;51.468;5.814;2023-04-26T05:49:48;101632.28;;;4.68;100.00
60244;BME280;46106;51.468;5.814;2023-04-26T05:52:14;101630.94;;;4.78;100.00
60244;BME280;46106;51.468;5.814;2023-04-26T05:54:40;101630.88;;;4.79;100.00
60244;BME280;46106;51.468;5.814;2023-04-26T05:57:05;101630.19;;;4.74;100.00
60244;BME280;46106;51.468;5.814;2023-04-26T05:59:35;101630.81;;;4.81;100.00
60244;BME280;46106;51.468;5.814;2023-04-26T06:02:00;101643.88;;;4.71;100.00
60244;BME280;46106;51.468;5.814;2023-04-26T06:04:26;101633.06;;;4.92;100.00
60244;BME280;46106;51.468;5.814;2023-04-26T06:06:51;101637.94;;;4.84;100.00
60244;BME280;46106;51.468;5.814;2023-04-26T06:09:17;101641.13;;;4.93;100.00
60244;BME280;46106;51.468;5.814;2023-04-26T06:11:42;101638.47;;;4.92;100.00
60244;BME280;46106;51.468;5.814;2023-04-26T06:14:07;101640.28;;;5.13;100.00
60244;BME280;46106;51.468;5.814;2023-04-26T06:16:33;101640.41;;;5.51;100.00
60244;BME280;46106;51.468;5.814;2023-04-26T06:18:58;101642.22;;;5.71;100.00
60244;BME280;46106;51.468;5.814;2023-04-26T06:21:24;101637.31;;;5.80;100.00
60244;BME280;46106;51.468;5.814;2023-04-26T06:23:50;101645.06;;;6.08;100.00
60244;BME280;46106;51.468;5.814;2023-04-26T06:26:16;101641.34;;;6.11;100.00
60244;BME280;46106;51.468;5.814;2023-04-26T06:28:41;101643.25;;;6.09;100.00
60244;BME280;46106;51.468;5.814;2023-04-26T06:31:07;101623.75;;;6.37;100.00
60244;BME280;46106;51.468;5.814;2023-04-26T06:33:32;101637.41;;;6.54;100.00
60244;BME280;46106;51.468;5.814;2023-04-26T06:35:58;101629.47;;;7.21;100.00
60244;BME280;46106;51.468;5.814;2023-04-26T06:38:23;101636.44;;;7.27;100.00
60244;BME280;46106;51.468;5.814;2023-04-26T06:40:48;101642.75;;;7.45;100.00
60244;BME280;46106;51.468;5.814;2023-04-26T06:43:14;101647.63;;;7.55;100.00
60244;BME280;46106;51.468;5.814;2023-04-26T06:45:39;101654.44;;;7.64;100.00
60244;BME280;46106;51.468;5.814;2023-04-26T06:48:05;101653.97;;;7.56;100.00
60244;BME280;46106;51.468;5.814;2023-04-26T06:50:31;101658.16;;;7.28;100.00
60244;BME280;46106;51.468;5.814;2023-04-26T06:52:56;101657.34;;;7.44;100.00
60244;BME280;46106;51.468;5.814;2023-04-26T06:55:22;101657.44;;;7.25;100.00
60244;BME280;46106;51.468;5.814;2023-04-26T06:57:48;101659.81;;;7.48;100.00
60244;BME280;46106;51.468;5.814;2023-04-26T07:00:15;101660.59;;;8.01;100.00
60244;BME280;46106;51.468;5.814;2023-04-26T07:02:40;101659.97;;;8.45;100.00
60244;BME280;46106;51.468;5.814;2023-04-26T07:05:06;101669.44;;;8.54;100.00
60244;BME280;46106;51.468;5.814;2023-04-26T07:07:31;101659.38;;;8.23;100.00
60244;BME280;46106;51.468;5.814;2023-04-26T07:09:57;101672.94;;;8.24;100.00
60244;BME280;46106;51.468;5.814;2023-04-26T07:12:22;101674.75;;;7.92;100.00
60244;BME280;46106;51.468;5.814;2023-04-26T07:14:48;101666.97;;;7.84;100.00
60244;BME280;46106;51.468;5.814;2023-04-26T07:17:13;101661.88;;;7.61;100.00
60244;BME280;46106;51.468;5.814;2023-04-26T07:19:39;101665.44;;;7.79;100.00
60244;BME280;46106;51.468;5.814;2023-04-26T07:22:04;101665.38;;;7.80;100.00
60244;BME280;46106;51.468;5.814;2023-04-26T07:24:30;101655.31;;;8.14;100.00
60244;BME280;46106;51.468;5.814;2023-04-26T07:26:56;101661.13;;;8.08;100.00
60244;BME280;46106;51.468;5.814;2023-04-26T07:29:22;101663.00;;;8.23;100.00
60244;BME280;46106;51.468;5.814;2023-04-26T07:31:48;101669.81;;;8.64;100.00
60244;BME280;46106;51.468;5.814;2023-04-26T07:34:13;101662.38;;;8.34;100.00
60244;BME280;46106;51.468;5.814;2023-04-26T07:36:39;101662.38;;;8.18;100.00
60244;BME280;46106;51.468;5.814;2023-04-26T07:39:04;101659.00;;;8.46;100.00
60244;BME280;46106;51.468;5.814;2023-04-26T07:41:30;101661.34;;;8.37;100.00
60244;BME280;46106;51.468;5.814;2023-04-26T07:43:56;101657.56;;;8.71;100.00
60244;BME280;46106;51.468;5.814;2023-04-26T07:46:22;101668.00;;;8.95;100.00
60244;BME280;46106;51.468;5.814;2023-04-26T07:48:47;101657.50;;;9.03;100.00
60244;BME280;46106;51.468;5.814;2023-04-26T07:51:13;101647.09;;;9.10;100.00
60244;BME280;46106;51.468;5.814;2023-04-26T07:53:39;101649.97;;;8.92;100.00
60244;BME280;46106;51.468;5.814;2023-04-26T07:56:06;101652.13;;;9.01;100.00
60244;BME280;46106;51.468;5.814;2023-04-26T07:58:35;101651.78;;;9.08;100.00
60244;BME280;46106;51.468;5.814;2023-04-26T08:01:01;101649.66;;;9.13;100.00
60244;BME280;46106;51.468;5.814;2023-04-26T08:03:27;101647.16;;;9.24;100.00
60244;BME280;46106;51.468;5.814;2023-04-26T08:05:53;101655.84;;;10.04;98.55
60244;BME280;46106;51.468;5.814;2023-04-26T08:08:20;101651.81;;;10.10;87.79
60244;BME280;46106;51.468;5.814;2023-04-26T08:10:46;101652.34;;;10.02;99.03
60244;BME280;46106;51.468;5.814;2023-04-26T08:13:12;101659.84;;;10.13;89.34
60244;BME280;46106;51.468;5.814;2023-04-26T08:15:37;101660.09;;;9.51;94.43
60244;BME280;46106;51.468;5.814;2023-04-26T08:18:03;101658.00;;;8.79;92.84
60244;BME280;46106;51.468;5.814;2023-04-26T08:20:28;101658.00;;;8.95;98.38
60244;BME280;46106;51.468;5.814;2023-04-26T08:22:57;101661.94;;;8.90;95.91
60244;BME280;46106;51.468;5.814;2023-04-26T08:25:23;101655.16;;;9.57;98.45
60244;BME280;46106;51.468;5.814;2023-04-26T08:27:48;101673.75;;;9.51;96.88
60244;BME280;46106;51.468;5.814;2023-04-26T08:30:15;101678.06;;;8.94;98.93
60244;BME280;46106;51.468;5.814;2023-04-26T08:32:40;101668.59;;;9.16;96.83
60244;BME280;46106;51.468;5.814;2023-04-26T08:35:06;101679.63;;;8.98;93.24
60244;BME280;46106;51.468;5.814;2023-04-26T08:37:33;101678.31;;;9.06;97.05
60244;BME280;46106;51.468;5.814;2023-04-26T08:40:00;101675.66;;;9.34;97.30
60244;BME280;46106;51.468;5.814;2023-04-26T08:42:27;101675.00;;;9.15;96.20
60244;BME280;46106;51.468;5.814;2023-04-26T08:44:53;101667.31;;;9.07;97.58
60244;BME280;46106;51.468;5.814;2023-04-26T08:47:37;101657.34;;;8.90;97.98
60244;BME280;46106;51.468;5.814;2023-04-26T08:50:04;101662.16;;;9.17;97.40
60244;BME280;46106;51.468;5.814;2023-04-26T08:52:31;101669.97;;;8.93;96.77
60244;BME280;46106;51.468;5.814;2023-04-26T08:54:57;101665.84;;;8.70;100.00
60244;BME280;46106;51.468;5.814;2023-04-26T08:57:23;101664.91;;;8.71;95.03
60244;BME280;46106;51.468;5.814;2023-04-26T08:59:49;101659.56;;;8.83;100.00
60244;BME280;46106;51.468;5.814;2023-04-26T09:02:18;101662.06;;;9.18;92.09
60244;BME280;46106;51.468;5.814;2023-04-26T09:04:45;101664.31;;;9.85;76.83
60244;BME280;46106;51.468;5.814;2023-04-26T09:07:19;101650.97;;;9.81;80.94
60244;BME280;46106;51.468;5.814;2023-04-26T09:09:48;101650.78;;;9.39;84.48
60244;BME280;46106;51.468;5.814;2023-04-26T09:12:19;101647.81;;;9.58;80.53
60244;BME280;46106;51.468;5.814;2023-04-26T09:14:46;101647.53;;;10.06;75.12
60244;BME280;46106;51.468;5.814;2023-04-26T09:17:32;101660.13;;;9.65;74.63
60244;BME280;46106;51.468;5.814;2023-04-26T09:19:59;101663.44;;;9.56;76.51
60244;BME280;46106;51.468;5.814;2023-04-26T09:24:55;101653.66;;;8.91;83.34
60244;BME280;46106;51.468;5.814;2023-04-26T09:27:21;101651.78;;;9.08;82.63
60244;BME280;46106;51.468;5.814;2023-04-26T09:30:11;101655.25;;;8.95;84.01
60244;BME280;46106;51.468;5.814;2023-04-26T09:32:55;101660.31;;;9.17;75.09
60244;BME280;46106;51.468;5.814;2023-04-26T09:35:38;101649.09;;;9.22;76.78
60244;BME280;46106;51.468;5.814;2023-04-26T09:38:14;101661.03;;;9.35;77.09
60244;BME280;46106;51.468;5.814;2023-04-26T09:40:49;101655.53;;;9.66;73.15
60244;BME280;46106;51.468;5.814;2023-04-26T09:43:17;101658.38;;;9.93;71.99
60244;BME280;46106;51.468;5.814;2023-04-26T09:45:44;101653.41;;;10.43;70.37
60244;BME280;46106;51.468;5.814;2023-04-26T09:48:30;101655.66;;;10.78;69.62
60244;BME280;46106;51.468;5.814;2023-04-26T09:53:54;101650.97;;;11.20;66.75
60244;BME280;46106;51.468;5.814;2023-04-26T09:56:20;101648.69;;;10.72;65.61
60244;BME280;46106;51.468;5.814;2023-04-26T10:01:18;101641.75;;;10.39;68.74
60244;BME280;46106;51.468;5.814;2023-04-26T10:03:45;101640.69;;;10.42;70.37
60244;BME280;46106;51.468;5.814;2023-04-26T10:06:15;101636.50;;;9.93;65.47
60244;BME280;46106;51.468;5.814;2023-04-26T10:08:42;101644.78;;;9.91;60.76
60244;BME280;46106;51.468;5.814;2023-04-26T10:11:10;101635.63;;;9.92;63.65
60244;BME280;46106;51.468;5.814;2023-04-26T10:13:37;101632.06;;;10.19;66.96
60244;BME280;46106;51.468;5.814;2023-04-26T10:16:04;101642.75;;;10.38;66.74
60244;BME280;46106;51.468;5.814;2023-04-26T10:18:31;101633.66;;;10.65;66.09
60244;BME280;46106;51.468;5.814;2023-04-26T10:20:59;101636.81;;;10.59;63.57
60244;BME280;46106;51.468;5.814;2023-04-26T10:23:26;101634.94;;;10.32;65.10
60244;BME280;46106;51.468;5.814;2023-04-26T10:25:53;101647.81;;;10.72;59.75
60244;BME280;46106;51.468;5.814;2023-04-26T10:31:13;101635.81;;;10.04;66.17
60244;BME280;46106;51.468;5.814;2023-04-26T10:33:39;101633.56;;;9.82;66.63
60244;BME280;46106;51.468;5.814;2023-04-26T10:36:07;101631.59;;;9.98;69.08
60244;BME280;46106;51.468;5.814;2023-04-26T10:39:25;101631.59;;;9.98;67.30
60244;BME280;46106;51.468;5.814;2023-04-26T10:41:32;101628.88;;;9.98;68.07
60244;BME280;46106;51.468;5.814;2023-04-26T10:44:00;101633.47;;;9.98;68.19
60244;BME280;46106;51.468;5.814;2023-04-26T10:46:49;101631.16;;;10.47;66.66
60244;BME280;46106;51.468;5.814;2023-04-26T10:49:17;101630.78;;;10.39;64.03
60244;BME280;46106;51.468;5.814;2023-04-26T10:52:09;101627.25;;;10.52;65.40
60244;BME280;46106;51.468;5.814;2023-04-26T10:54:52;101626.47;;;11.04;60.70
60244;BME280;46106;51.468;5.814;2023-04-26T10:57:18;101624.06;;;11.12;63.35
60244;BME280;46106;51.468;5.814;2023-04-26T11:05:39;101619.94;;;11.32;61.74
60244;BME280;46106;51.468;5.814;2023-04-26T11:10:38;101609.91;;;10.38;63.37
60244;BME280;46106;51.468;5.814;2023-04-26T11:13:04;101617.81;;;10.70;62.93
60244;BME280;46106;51.468;5.814;2023-04-26T11:15:30;101613.56;;;10.79;59.46
60244;BME280;46106;51.468;5.814;2023-04-26T11:17:56;101606.19;;;10.66;58.25
60244;BME280;46106;51.468;5.814;2023-04-26T11:20:21;101607.28;;;9.93;60.88
60244;BME280;46106;51.468;5.814;2023-04-26T11:22:47;101605.91;;;10.15;64.22
60244;BME280;46106;51.468;5.814;2023-04-26T11:25:13;101609.41;;;10.32;65.68
60244;BME280;46106;51.468;5.814;2023-04-26T11:27:41;101614.91;;;10.59;61.45
60244;BME280;46106;51.468;5.814;2023-04-26T11:30:10;101616.75;;;10.17;65.19
60244;BME280;46106;51.468;5.814;2023-04-26T11:32:36;101610.19;;;10.19;64.84
60244;BME280;46106;51.468;5.814;2023-04-26T11:35:02;101607.34;;;10.62;61.23
60244;BME280;46106;51.468;5.814;2023-04-26T11:37:29;101608.97;;;10.52;64.20
60244;BME280;46106;51.468;5.814;2023-04-26T11:39:56;101608.13;;;10.37;62.32
60244;BME280;46106;51.468;5.814;2023-04-26T11:42:24;101601.97;;;10.88;57.73
60244;BME280;46106;51.468;5.814;2023-04-26T11:44:49;101597.13;;;10.52;63.24
60244;BME280;46106;51.468;5.814;2023-04-26T11:47:16;101595.06;;;10.14;62.17
60244;BME280;46106;51.468;5.814;2023-04-26T11:49:42;101597.00;;;10.11;63.58
60244;BME280;46106;51.468;5.814;2023-04-26T11:52:09;101593.38;;;10.40;65.02
60244;BME280;46106;51.468;5.814;2023-04-26T11:54:35;101592.28;;;10.70;64.82
60244;BME280;46106;51.468;5.814;2023-04-26T11:57:15;101581.56;;;10.52;62.38
60244;BME280;46106;51.468;5.814;2023-04-26T11:59:42;101592.53;;;10.52;60.81
60244;BME280;46106;51.468;5.814;2023-04-26T12:02:08;101598.09;;;10.51;58.45
60244;BME280;46106;51.468;5.814;2023-04-26T12:04:35;101589.66;;;10.68;59.72
60244;BME280;46106;51.468;5.814;2023-04-26T12:07:03;101590.00;;;11.29;58.38
60244;BME280;46106;51.468;5.814;2023-04-26T12:09:29;101600.06;;;11.16;57.30
60244;BME280;46106;51.468;5.814;2023-04-26T12:12:05;101599.09;;;11.17;57.52
60244;BME280;46106;51.468;5.814;2023-04-26T12:14:32;101596.19;;;10.53;53.99
60244;BME280;46106;51.468;5.814;2023-04-26T12:17:01;101605.59;;;10.89;56.49
60244;BME280;46106;51.468;5.814;2023-04-26T12:19:37;101597.13;;;11.32;54.04
60244;BME280;46106;51.468;5.814;2023-04-26T12:22:04;101596.91;;;11.48;54.50
60244;BME280;46106;51.468;5.814;2023-04-26T12:24:31;101602.50;;;11.59;55.89
60244;BME280;46106;51.468;5.814;2023-04-26T12:27:02;101606.63;;;11.13;57.25
60244;BME280;46106;51.468;5.814;2023-04-26T12:29:29;101603.03;;;11.26;56.32
60244;BME280;46106;51.468;5.814;2023-04-26T12:31:56;101595.06;;;11.48;54.88
60244;BME280;46106;51.468;5.814;2023-04-26T12:34:22;101591.00;;;11.54;54.13
60244;BME280;46106;51.468;5.814;2023-04-26T12:36:47;101597.47;;;11.66;56.25
60244;BME280;46106;51.468;5.814;2023-04-26T12:39:13;101599.22;;;12.05;52.49
60244;BME280;46106;51.468;5.814;2023-04-26T12:41:40;101598.47;;;11.90;51.35
60244;BME280;46106;51.468;5.814;2023-04-26T12:44:09;101599.13;;;11.81;52.04
60244;BME280;46106;51.468;5.814;2023-04-26T12:46:35;101595.13;;;11.08;55.28
60244;BME280;46106;51.468;5.814;2023-04-26T12:49:01;101602.00;;;11.01;57.57
60244;BME280;46106;51.468;5.814;2023-04-26T12:51:28;101594.13;;;11.09;57.78
60244;BME280;46106;51.468;5.814;2023-04-26T12:53:54;101594.69;;;11.14;58.30
60244;BME280;46106;51.468;5.814;2023-04-26T12:56:19;101593.31;;;11.21;58.11
60244;BME280;46106;51.468;5.814;2023-04-26T12:58:46;101597.78;;;11.35;57.26
60244;BME280;46106;51.468;5.814;2023-04-26T13:01:12;101593.63;;;11.30;56.28
60244;BME280;46106;51.468;5.814;2023-04-26T13:03:38;101589.59;;;11.48;56.97
60244;BME280;46106;51.468;5.814;2023-04-26T13:06:04;101595.63;;;11.79;57.01
60244;BME280;46106;51.468;5.814;2023-04-26T13:08:30;101592.56;;;11.71;56.76